RJA512 HECA-OJAQ
Flight info
| Callsign | RJA512 |
|---|---|
| Flight time | 0h 49m |
| Altitude | 31000 |
| Route | CVO L677 MENLI N697 SISIK W976 DATOK DCT KARIK DCT ULINA |
| Aircraft | A20N/M-SDE2E3FGHIRWXY/LB1 |
Departure
| Time | 2026-04-21 18:36 |
|---|---|
| Airport | Cairo International Airport (HECA) |
Arrival
| Time | 2026-04-21 19:25 |
|---|---|
| Airport | King Hussein International Airport (OJAQ) |
| Time | Latitude | Longitude | Altitude | Speed | Heading |
|---|---|---|---|---|---|
| 2026-04-21 18:15 | 30.10744 | 31.39693 | 374 ft | 0 kts | 255° |
| 2026-04-21 18:28 | 30.10746 | 31.39701 | 374 ft | 1 kts | 255° |
| 2026-04-21 18:28 | 30.10748 | 31.39710 | 374 ft | 1 kts | 255° |
| 2026-04-21 18:28 | 30.10750 | 31.39719 | 374 ft | 1 kts | 255° |
| 2026-04-21 18:29 | 30.10752 | 31.39727 | 374 ft | 1 kts | 255° |
| 2026-04-21 18:29 | 30.10754 | 31.39736 | 374 ft | 1 kts | 255° |
| 2026-04-21 18:29 | 30.10755 | 31.39743 | 374 ft | 1 kts | 255° |
| 2026-04-21 18:29 | 30.10757 | 31.39749 | 374 ft | 1 kts | 253° |
| 2026-04-21 18:30 | 30.10759 | 31.39757 | 374 ft | 1 kts | 253° |
| 2026-04-21 18:30 | 30.10761 | 31.39765 | 374 ft | 1 kts | 253° |
| 2026-04-21 18:30 | 30.10763 | 31.39773 | 374 ft | 1 kts | 251° |
| 2026-04-21 18:30 | 30.10767 | 31.39785 | 374 ft | 2 kts | 219° |
| 2026-04-21 18:31 | 30.10777 | 31.39790 | 374 ft | 0 kts | 167° |
| 2026-04-21 18:32 | 30.10755 | 31.39795 | 363 ft | 6 kts | 169° |
| 2026-04-21 18:32 | 30.10697 | 31.39810 | 374 ft | 11 kts | 165° |
| 2026-04-21 18:32 | 30.10605 | 31.39838 | 374 ft | 17 kts | 165° |
| 2026-04-21 18:33 | 30.10487 | 31.39873 | 374 ft | 15 kts | 165° |
| 2026-04-21 18:33 | 30.10391 | 31.39834 | 374 ft | 15 kts | 228° |
| 2026-04-21 18:33 | 30.10312 | 31.39731 | 374 ft | 19 kts | 229° |
| 2026-04-21 18:33 | 30.10226 | 31.39618 | 374 ft | 17 kts | 229° |
| 2026-04-21 18:34 | 30.10127 | 31.39595 | 374 ft | 15 kts | 139° |
| 2026-04-21 18:34 | 30.10035 | 31.39686 | 374 ft | 18 kts | 138° |
| 2026-04-21 18:34 | 30.10010 | 31.39822 | 373 ft | 20 kts | 80° |
| 2026-04-21 18:34 | 30.10044 | 31.39926 | 370 ft | 0 kts | 50° |
| 2026-04-21 18:35 | 30.10279 | 31.40235 | 374 ft | 99 kts | 50° |
| 2026-04-21 18:35 | 30.10921 | 31.41086 | 410 ft | 171 kts | 46° |
| 2026-04-21 18:35 | 30.11750 | 31.42207 | 901 ft | 202 kts | 46° |
| 2026-04-21 18:36 | 30.12649 | 31.43392 | 1344 ft | 186 kts | 46° |
| 2026-04-21 18:36 | 30.13581 | 31.44594 | 1825 ft | 214 kts | 46° |
| 2026-04-21 18:36 | 30.14640 | 31.45927 | 2469 ft | 241 kts | 45° |
| 2026-04-21 18:36 | 30.15575 | 31.47595 | 3414 ft | 254 kts | 70° |
| 2026-04-21 18:37 | 30.15728 | 31.49651 | 4507 ft | 266 kts | 97° |
| 2026-04-21 18:37 | 30.15022 | 31.51651 | 5540 ft | 276 kts | 126° |
| 2026-04-21 18:37 | 30.13578 | 31.53118 | 6567 ft | 284 kts | 152° |
| 2026-04-21 18:37 | 30.11717 | 31.53942 | 7592 ft | 289 kts | 163° |
| 2026-04-21 18:38 | 30.09781 | 31.54675 | 8637 ft | 295 kts | 160° |
| 2026-04-21 18:38 | 30.07865 | 31.55578 | 9683 ft | 301 kts | 156° |
| 2026-04-21 18:38 | 30.05959 | 31.56664 | 10569 ft | 312 kts | 153° |
| 2026-04-21 18:38 | 30.03985 | 31.57914 | 11048 ft | 336 kts | 151° |
| 2026-04-21 18:39 | 30.01886 | 31.59312 | 11513 ft | 357 kts | 150° |
| 2026-04-21 18:39 | 29.99721 | 31.60774 | 11717 ft | 362 kts | 150° |
| 2026-04-21 18:39 | 29.97555 | 31.62237 | 11742 ft | 361 kts | 150° |
| 2026-04-21 18:39 | 29.95373 | 31.63704 | 12219 ft | 365 kts | 150° |
| 2026-04-21 18:40 | 29.93190 | 31.65217 | 13219 ft | 367 kts | 147° |
| 2026-04-21 18:40 | 29.91195 | 31.67089 | 14073 ft | 375 kts | 136° |
| 2026-04-21 18:40 | 29.90025 | 31.68571 | 14594 ft | 379 kts | 129° |
| 2026-04-21 18:40 | 29.87917 | 31.71881 | 15658 ft | 386 kts | 127° |
| 2026-04-21 18:41 | 29.86320 | 31.74397 | 16429 ft | 392 kts | 127° |
| 2026-04-21 18:41 | 29.84693 | 31.76943 | 17209 ft | 397 kts | 127° |
| 2026-04-21 18:41 | 29.83075 | 31.79466 | 17950 ft | 403 kts | 128° |
| 2026-04-21 18:41 | 29.81393 | 31.82084 | 18653 ft | 408 kts | 128° |
| 2026-04-21 18:42 | 29.79737 | 31.84748 | 19348 ft | 412 kts | 123° |
| 2026-04-21 18:42 | 29.78381 | 31.87673 | 20027 ft | 417 kts | 114° |
| 2026-04-21 18:42 | 29.77424 | 31.90848 | 20698 ft | 423 kts | 104° |
| 2026-04-21 18:42 | 29.76712 | 31.94148 | 21371 ft | 427 kts | 104° |
| 2026-04-21 18:43 | 29.75986 | 31.97476 | 22015 ft | 431 kts | 104° |
| 2026-04-21 18:43 | 29.75241 | 32.00845 | 22656 ft | 436 kts | 105° |
| 2026-04-21 18:43 | 29.74487 | 32.04241 | 23308 ft | 440 kts | 105° |
| 2026-04-21 18:43 | 29.73723 | 32.07665 | 23890 ft | 445 kts | 105° |
| 2026-04-21 18:44 | 29.72948 | 32.11140 | 24380 ft | 450 kts | 105° |
| 2026-04-21 18:44 | 29.72166 | 32.14641 | 24867 ft | 455 kts | 105° |
| 2026-04-21 18:44 | 29.71374 | 32.18183 | 25347 ft | 459 kts | 105° |
| 2026-04-21 18:44 | 29.70584 | 32.21714 | 25810 ft | 464 kts | 105° |
| 2026-04-21 18:45 | 29.69763 | 32.25373 | 26282 ft | 468 kts | 105° |
| 2026-04-21 18:45 | 29.68949 | 32.29001 | 26728 ft | 473 kts | 105° |
| 2026-04-21 18:45 | 29.68130 | 32.32644 | 27164 ft | 477 kts | 106° |
| 2026-04-21 18:45 | 29.67296 | 32.36351 | 27600 ft | 482 kts | 106° |
| 2026-04-21 18:46 | 29.66453 | 32.40091 | 28022 ft | 485 kts | 106° |
| 2026-04-21 18:46 | 29.65599 | 32.43873 | 28417 ft | 490 kts | 106° |
| 2026-04-21 18:46 | 29.64740 | 32.47672 | 28808 ft | 494 kts | 106° |
| 2026-04-21 18:46 | 29.63872 | 32.51507 | 29187 ft | 498 kts | 106° |
| 2026-04-21 18:47 | 29.62997 | 32.55366 | 29563 ft | 501 kts | 106° |
| 2026-04-21 18:47 | 29.62113 | 32.59260 | 29933 ft | 505 kts | 107° |
| 2026-04-21 18:47 | 29.61220 | 32.63185 | 30260 ft | 509 kts | 107° |
| 2026-04-21 18:47 | 29.60425 | 32.67162 | 30576 ft | 514 kts | 101° |
| 2026-04-21 18:48 | 29.60055 | 32.71264 | 30880 ft | 519 kts | 92° |
| 2026-04-21 18:48 | 29.60063 | 32.75426 | 31003 ft | 521 kts | 89° |
| 2026-04-21 18:48 | 29.60117 | 32.79586 | 31018 ft | 520 kts | 89° |
| 2026-04-21 18:49 | 29.60209 | 32.87899 | 31020 ft | 520 kts | 90° |
| 2026-04-21 18:49 | 29.60272 | 32.94754 | 31026 ft | 520 kts | 90° |
| 2026-04-21 18:50 | 29.60354 | 33.04529 | 31030 ft | 520 kts | 90° |
| 2026-04-21 18:50 | 29.60418 | 33.12849 | 31031 ft | 521 kts | 90° |
| 2026-04-21 18:51 | 29.60477 | 33.21168 | 31040 ft | 521 kts | 90° |
| 2026-04-21 18:51 | 29.60531 | 33.29502 | 31040 ft | 521 kts | 90° |
| 2026-04-21 18:52 | 29.60580 | 33.37768 | 31045 ft | 521 kts | 90° |
| 2026-04-21 18:52 | 29.60624 | 33.46091 | 31040 ft | 521 kts | 90° |
| 2026-04-21 18:53 | 29.60663 | 33.54417 | 31040 ft | 521 kts | 90° |
| 2026-04-21 18:53 | 29.60697 | 33.62737 | 31037 ft | 521 kts | 90° |
| 2026-04-21 18:54 | 29.60725 | 33.71069 | 31033 ft | 521 kts | 90° |
| 2026-04-21 18:54 | 29.60749 | 33.79401 | 31035 ft | 521 kts | 90° |
| 2026-04-21 18:55 | 29.60759 | 33.86334 | 31032 ft | 522 kts | 91° |
| 2026-04-21 18:55 | 29.60743 | 33.96080 | 31029 ft | 522 kts | 91° |
| 2026-04-21 18:56 | 29.60725 | 34.04410 | 31024 ft | 522 kts | 91° |
| 2026-04-21 18:56 | 29.60704 | 34.12765 | 31021 ft | 523 kts | 91° |
| 2026-04-21 18:57 | 29.60522 | 34.21122 | 31016 ft | 522 kts | 98° |
| 2026-04-21 18:57 | 29.58872 | 34.29181 | 31014 ft | 517 kts | 113° |
| 2026-04-21 18:58 | 29.56460 | 34.36911 | 31007 ft | 517 kts | 113° |
| 2026-04-21 18:58 | 29.54051 | 34.44695 | 31005 ft | 518 kts | 113° |
| 2026-04-21 18:59 | 29.51630 | 34.52491 | 30996 ft | 518 kts | 113° |
| 2026-04-21 18:59 | 29.49204 | 34.60281 | 30987 ft | 519 kts | 113° |
| 2026-04-21 19:00 | 29.46770 | 34.68076 | 30982 ft | 519 kts | 113° |
| 2026-04-21 19:00 | 29.44423 | 34.75916 | 30977 ft | 522 kts | 107° |
| 2026-04-21 19:01 | 29.43270 | 34.84150 | 30586 ft | 522 kts | 94° |
| 2026-04-21 19:01 | 29.43413 | 34.88300 | 29879 ft | 523 kts | 82° |
| 2026-04-21 19:01 | 29.44207 | 34.92367 | 28930 ft | 521 kts | 70° |
| 2026-04-21 19:01 | 29.45623 | 34.96170 | 27918 ft | 515 kts | 58° |
| 2026-04-21 19:02 | 29.47585 | 34.99534 | 26907 ft | 501 kts | 46° |
| 2026-04-21 19:02 | 29.50004 | 35.02324 | 25949 ft | 484 kts | 34° |
| 2026-04-21 19:02 | 29.52744 | 35.04429 | 24995 ft | 468 kts | 22° |
| 2026-04-21 19:02 | 29.55705 | 35.05799 | 24084 ft | 452 kts | 11° |
| 2026-04-21 19:03 | 29.58751 | 35.06381 | 23069 ft | 437 kts | 358° |
| 2026-04-21 19:03 | 29.61715 | 35.06173 | 22004 ft | 423 kts | 347° |
| 2026-04-21 19:03 | 29.64606 | 35.05802 | 21354 ft | 410 kts | 353° |
| 2026-04-21 19:03 | 29.67394 | 35.05939 | 21098 ft | 391 kts | 3° |
| 2026-04-21 19:04 | 29.70001 | 35.06538 | 20862 ft | 373 kts | 10° |
| 2026-04-21 19:04 | 29.72423 | 35.07402 | 20673 ft | 355 kts | 14° |
| 2026-04-21 19:04 | 29.74681 | 35.08369 | 20507 ft | 338 kts | 16° |
| 2026-04-21 19:04 | 29.76832 | 35.09355 | 20162 ft | 330 kts | 17° |
| 2026-04-21 19:05 | 29.78915 | 35.10327 | 19877 ft | 325 kts | 17° |
| 2026-04-21 19:05 | 29.81020 | 35.11314 | 19636 ft | 319 kts | 17° |
| 2026-04-21 19:05 | 29.83045 | 35.12262 | 19402 ft | 318 kts | 17° |
| 2026-04-21 19:05 | 29.85104 | 35.13220 | 19175 ft | 319 kts | 17° |
| 2026-04-21 19:06 | 29.87161 | 35.14176 | 18947 ft | 316 kts | 17° |
| 2026-04-21 19:06 | 29.89198 | 35.15124 | 18716 ft | 315 kts | 17° |
| 2026-04-21 19:06 | 29.91228 | 35.16069 | 18483 ft | 314 kts | 17° |
| 2026-04-21 19:06 | 29.92567 | 35.16693 | 18337 ft | 313 kts | 17° |
| 2026-04-21 19:07 | 29.95219 | 35.18071 | 17990 ft | 317 kts | 30° |
| 2026-04-21 19:07 | 29.96323 | 35.19190 | 17827 ft | 322 kts | 46° |
| 2026-04-21 19:07 | 29.97443 | 35.21443 | 17450 ft | 327 kts | 70° |
| 2026-04-21 19:07 | 29.97722 | 35.24035 | 17065 ft | 328 kts | 95° |
| 2026-04-21 19:08 | 29.97111 | 35.26538 | 16680 ft | 324 kts | 120° |
| 2026-04-21 19:08 | 29.95730 | 35.28546 | 16154 ft | 320 kts | 144° |
| 2026-04-21 19:08 | 29.93803 | 35.29722 | 15717 ft | 310 kts | 169° |
| 2026-04-21 19:08 | 29.91703 | 35.29874 | 15321 ft | 298 kts | 194° |
| 2026-04-21 19:09 | 29.89821 | 35.29019 | 14896 ft | 288 kts | 220° |
| 2026-04-21 19:09 | 29.88498 | 35.27366 | 14475 ft | 280 kts | 242° |
| 2026-04-21 19:09 | 29.87607 | 35.25382 | 14102 ft | 277 kts | 248° |
| 2026-04-21 19:09 | 29.86828 | 35.23355 | 13694 ft | 277 kts | 249° |
| 2026-04-21 19:10 | 29.86073 | 35.21322 | 13286 ft | 276 kts | 249° |
| 2026-04-21 19:10 | 29.85331 | 35.19313 | 13036 ft | 269 kts | 249° |
| 2026-04-21 19:10 | 29.84605 | 35.17351 | 12819 ft | 261 kts | 249° |
| 2026-04-21 19:10 | 29.83899 | 35.15452 | 12586 ft | 254 kts | 248° |
| 2026-04-21 19:11 | 29.83060 | 35.13716 | 12382 ft | 249 kts | 236° |
| 2026-04-21 19:11 | 29.81884 | 35.12274 | 12134 ft | 247 kts | 222° |
| 2026-04-21 19:11 | 29.80386 | 35.11101 | 11850 ft | 279 kts | 212° |
| 2026-04-21 19:11 | 29.78583 | 35.10081 | 11690 ft | 292 kts | 206° |
| 2026-04-21 19:12 | 29.76727 | 35.09207 | 11616 ft | 284 kts | 204° |
| 2026-04-21 19:12 | 29.74932 | 35.08413 | 11507 ft | 269 kts | 203° |
| 2026-04-21 19:12 | 29.73232 | 35.07667 | 11379 ft | 253 kts | 204° |
| 2026-04-21 19:12 | 29.71628 | 35.06952 | 11111 ft | 243 kts | 204° |
| 2026-04-21 19:13 | 29.70057 | 35.06241 | 10669 ft | 242 kts | 204° |
| 2026-04-21 19:13 | 29.68506 | 35.05532 | 10327 ft | 236 kts | 204° |
| 2026-04-21 19:13 | 29.66989 | 35.04820 | 9887 ft | 234 kts | 205° |
| 2026-04-21 19:13 | 29.65528 | 35.04134 | 9764 ft | 224 kts | 205° |
| 2026-04-21 19:14 | 29.64027 | 35.03429 | 9654 ft | 237 kts | 204° |
| 2026-04-21 19:14 | 29.62499 | 35.02721 | 9523 ft | 236 kts | 204° |
| 2026-04-21 19:14 | 29.60968 | 35.02017 | 9143 ft | 239 kts | 203° |
| 2026-04-21 19:14 | 29.59422 | 35.01309 | 8776 ft | 239 kts | 203° |
| 2026-04-21 19:15 | 29.57879 | 35.00607 | 8411 ft | 238 kts | 201° |
| 2026-04-21 19:15 | 29.56259 | 35.00281 | 8058 ft | 237 kts | 180° |
| 2026-04-21 19:15 | 29.54615 | 35.00374 | 7716 ft | 236 kts | 175° |
| 2026-04-21 19:15 | 29.52989 | 35.00522 | 7440 ft | 232 kts | 176° |
| 2026-04-21 19:16 | 29.51392 | 35.00619 | 7196 ft | 227 kts | 178° |
| 2026-04-21 19:16 | 29.49824 | 35.00658 | 6952 ft | 223 kts | 179° |
| 2026-04-21 19:16 | 29.48286 | 35.00661 | 6717 ft | 219 kts | 179° |
| 2026-04-21 19:16 | 29.46780 | 35.00645 | 6487 ft | 215 kts | 180° |
| 2026-04-21 19:17 | 29.43842 | 35.00602 | 6019 ft | 208 kts | 180° |
| 2026-04-21 19:17 | 29.42408 | 35.00582 | 5813 ft | 204 kts | 179° |
| 2026-04-21 19:17 | 29.40880 | 35.00563 | 5614 ft | 234 kts | 179° |
| 2026-04-21 19:18 | 29.39222 | 35.00542 | 5488 ft | 238 kts | 180° |
| 2026-04-21 19:18 | 29.37603 | 35.00312 | 5333 ft | 233 kts | 201° |
| 2026-04-21 19:18 | 29.36308 | 34.99247 | 4999 ft | 230 kts | 235° |
| 2026-04-21 19:18 | 29.35716 | 34.97585 | 4594 ft | 227 kts | 269° |
| 2026-04-21 19:19 | 29.35991 | 34.95869 | 4163 ft | 223 kts | 301° |
| 2026-04-21 19:19 | 29.37037 | 34.94656 | 3926 ft | 211 kts | 335° |
| 2026-04-21 19:19 | 29.38429 | 34.94270 | 3689 ft | 204 kts | 359° |
| 2026-04-21 19:19 | 29.39812 | 34.94420 | 3587 ft | 200 kts | 11° |
| 2026-04-21 19:20 | 29.41177 | 34.94817 | 3569 ft | 203 kts | 16° |
| 2026-04-21 19:20 | 29.42500 | 34.95279 | 3512 ft | 194 kts | 17° |
| 2026-04-21 19:20 | 29.43759 | 34.95718 | 3424 ft | 184 kts | 17° |
| 2026-04-21 19:20 | 29.44944 | 34.96132 | 3203 ft | 173 kts | 16° |
| 2026-04-21 19:21 | 29.46062 | 34.96522 | 2973 ft | 163 kts | 16° |
| 2026-04-21 19:21 | 29.47121 | 34.96892 | 2757 ft | 155 kts | 16° |
| 2026-04-21 19:21 | 29.48113 | 34.97239 | 2555 ft | 142 kts | 16° |
| 2026-04-21 19:21 | 29.48999 | 34.97549 | 2385 ft | 126 kts | 15° |
| 2026-04-21 19:22 | 29.49794 | 34.97827 | 2230 ft | 118 kts | 15° |
| 2026-04-21 19:22 | 29.50595 | 34.98107 | 2082 ft | 121 kts | 17° |
| 2026-04-21 19:22 | 29.51406 | 34.98391 | 1919 ft | 121 kts | 16° |
| 2026-04-21 19:22 | 29.52205 | 34.98670 | 1763 ft | 121 kts | 15° |
| 2026-04-21 19:23 | 29.52998 | 34.98949 | 1596 ft | 120 kts | 17° |
| 2026-04-21 19:23 | 29.53801 | 34.99229 | 1429 ft | 121 kts | 17° |
| 2026-04-21 19:23 | 29.54594 | 34.99508 | 1261 ft | 118 kts | 16° |
| 2026-04-21 19:23 | 29.55398 | 34.99788 | 1101 ft | 122 kts | 17° |
| 2026-04-21 19:24 | 29.56199 | 35.00071 | 931 ft | 119 kts | 15° |
| 2026-04-21 19:24 | 29.56966 | 35.00337 | 792 ft | 124 kts | 14° |
| 2026-04-21 19:24 | 29.57772 | 35.00622 | 619 ft | 116 kts | 16° |
| 2026-04-21 19:24 | 29.58533 | 35.00888 | 470 ft | 117 kts | 13° |
| 2026-04-21 19:25 | 29.59328 | 35.01166 | 324 ft | 120 kts | 15° |
| 2026-04-21 19:25 | 29.60116 | 35.01444 | 187 ft | 117 kts | 15° |
| 2026-04-21 19:25 | 29.60794 | 35.01673 | 175 ft | 86 kts | 17° |
| 2026-04-21 19:25 | 29.61140 | 35.01796 | 174 ft | 10 kts | 22° |
| 2026-04-21 19:26 | 29.61159 | 35.01870 | 174 ft | 12 kts | 104° |
| 2026-04-21 19:26 | 29.61154 | 35.01892 | 174 ft | 3 kts | 105° |
| 2026-04-21 19:26 | 29.61143 | 35.01935 | 175 ft | 8 kts | 105° |
| 2026-04-21 19:26 | 29.61109 | 35.01978 | 175 ft | 8 kts | 168° |
| 2026-04-21 19:27 | 29.61087 | 35.02002 | 176 ft | 2 kts | 110° |
| 2026-04-21 19:27 | 29.61077 | 35.02036 | 176 ft | 5 kts | 107° |
| 2026-04-21 19:27 | 29.61076 | 35.02039 | 176 ft | 0 kts | 107° |